sensor_id;sensor_type;location;lat;lon;timestamp;P1;durP1;ratioP1;P2;durP2;ratioP2
68870;SDS011;55906;52.278;6.808;2023-08-06T00:00:07;6.03;;;4.28;;
68870;SDS011;55906;52.278;6.808;2023-08-06T00:02:34;8.07;;;5.40;;
68870;SDS011;55906;52.278;6.808;2023-08-06T00:05:01;7.05;;;5.10;;
68870;SDS011;55906;52.278;6.808;2023-08-06T00:07:28;6.13;;;4.53;;
68870;SDS011;55906;52.278;6.808;2023-08-06T00:09:55;7.10;;;4.15;;
68870;SDS011;55906;52.278;6.808;2023-08-06T00:12:22;6.22;;;5.13;;
68870;SDS011;55906;52.278;6.808;2023-08-06T00:14:51;6.73;;;4.20;;
68870;SDS011;55906;52.278;6.808;2023-08-06T00:17:18;6.22;;;4.30;;
68870;SDS011;55906;52.278;6.808;2023-08-06T00:19:45;5.93;;;4.82;;
68870;SDS011;55906;52.278;6.808;2023-08-06T00:22:12;8.00;;;5.20;;
68870;SDS011;55906;52.278;6.808;2023-08-06T00:24:38;7.32;;;5.68;;
68870;SDS011;55906;52.278;6.808;2023-08-06T00:27:05;7.03;;;5.40;;
68870;SDS011;55906;52.278;6.808;2023-08-06T00:29:32;6.93;;;4.70;;
68870;SDS011;55906;52.278;6.808;2023-08-06T00:32:00;8.57;;;6.03;;
68870;SDS011;55906;52.278;6.808;2023-08-06T00:34:26;7.90;;;5.20;;
68870;SDS011;55906;52.278;6.808;2023-08-06T00:36:53;9.57;;;6.15;;
68870;SDS011;55906;52.278;6.808;2023-08-06T00:39:20;7.97;;;4.97;;
68870;SDS011;55906;52.278;6.808;2023-08-06T00:41:46;7.80;;;4.97;;
68870;SDS011;55906;52.278;6.808;2023-08-06T00:44:13;8.75;;;5.90;;
68870;SDS011;55906;52.278;6.808;2023-08-06T00:46:40;10.02;;;5.28;;
68870;SDS011;55906;52.278;6.808;2023-08-06T00:49:08;7.70;;;5.60;;
68870;SDS011;55906;52.278;6.808;2023-08-06T00:51:34;8.30;;;4.67;;
68870;SDS011;55906;52.278;6.808;2023-08-06T00:54:01;9.07;;;5.07;;
68870;SDS011;55906;52.278;6.808;2023-08-06T00:56:28;7.25;;;5.47;;
68870;SDS011;55906;52.278;6.808;2023-08-06T00:58:55;7.80;;;4.95;;
68870;SDS011;55906;52.278;6.808;2023-08-06T01:01:22;6.75;;;4.80;;
68870;SDS011;55906;52.278;6.808;2023-08-06T01:03:49;6.07;;;4.47;;
68870;SDS011;55906;52.278;6.808;2023-08-06T01:06:17;7.00;;;4.60;;
68870;SDS011;55906;52.278;6.808;2023-08-06T01:08:53;9.15;;;6.03;;
68870;SDS011;55906;52.278;6.808;2023-08-06T01:11:26;9.27;;;5.40;;
68870;SDS011;55906;52.278;6.808;2023-08-06T01:13:58;7.07;;;4.85;;
68870;SDS011;55906;52.278;6.808;2023-08-06T01:16:30;6.20;;;4.40;;
68870;SDS011;55906;52.278;6.808;2023-08-06T01:18:59;6.43;;;4.78;;
68870;SDS011;55906;52.278;6.808;2023-08-06T01:21:27;7.10;;;4.32;;
68870;SDS011;55906;52.278;6.808;2023-08-06T01:23:53;6.32;;;4.25;;
68870;SDS011;55906;52.278;6.808;2023-08-06T01:26:22;8.10;;;5.45;;
68870;SDS011;55906;52.278;6.808;2023-08-06T01:28:56;7.90;;;5.27;;
68870;SDS011;55906;52.278;6.808;2023-08-06T01:31:29;8.20;;;5.25;;
68870;SDS011;55906;52.278;6.808;2023-08-06T01:33:58;7.22;;;5.68;;
68870;SDS011;55906;52.278;6.808;2023-08-06T01:36:27;7.45;;;4.88;;
68870;SDS011;55906;52.278;6.808;2023-08-06T01:38:54;5.95;;;4.20;;
68870;SDS011;55906;52.278;6.808;2023-08-06T01:41:22;5.57;;;3.77;;
68870;SDS011;55906;52.278;6.808;2023-08-06T01:43:49;6.40;;;4.60;;
68870;SDS011;55906;52.278;6.808;2023-08-06T01:46:15;8.30;;;5.22;;
68870;SDS011;55906;52.278;6.808;2023-08-06T01:48:42;7.40;;;4.82;;
68870;SDS011;55906;52.278;6.808;2023-08-06T01:51:09;7.68;;;5.15;;
68870;SDS011;55906;52.278;6.808;2023-08-06T01:53:37;7.13;;;3.93;;
68870;SDS011;55906;52.278;6.808;2023-08-06T01:56:04;7.80;;;4.80;;
68870;SDS011;55906;52.278;6.808;2023-08-06T01:58:30;5.95;;;3.92;;
68870;SDS011;55906;52.278;6.808;2023-08-06T02:00:57;6.65;;;4.07;;
68870;SDS011;55906;52.278;6.808;2023-08-06T02:03:24;6.32;;;5.00;;
68870;SDS011;55906;52.278;6.808;2023-08-06T02:05:50;7.50;;;5.30;;
68870;SDS011;55906;52.278;6.808;2023-08-06T02:08:17;7.32;;;5.22;;
68870;SDS011;55906;52.278;6.808;2023-08-06T02:10:45;9.07;;;5.63;;
68870;SDS011;55906;52.278;6.808;2023-08-06T02:13:12;7.22;;;5.38;;
68870;SDS011;55906;52.278;6.808;2023-08-06T02:15:41;7.40;;;5.07;;
68870;SDS011;55906;52.278;6.808;2023-08-06T02:18:08;6.60;;;4.47;;
68870;SDS011;55906;52.278;6.808;2023-08-06T02:20:35;6.20;;;4.10;;
68870;SDS011;55906;52.278;6.808;2023-08-06T02:23:01;6.13;;;4.75;;
68870;SDS011;55906;52.278;6.808;2023-08-06T02:25:28;7.53;;;4.55;;
68870;SDS011;55906;52.278;6.808;2023-08-06T02:27:56;7.10;;;4.35;;
68870;SDS011;55906;52.278;6.808;2023-08-06T02:30:22;6.27;;;4.50;;
68870;SDS011;55906;52.278;6.808;2023-08-06T02:32:49;6.70;;;4.32;;
68870;SDS011;55906;52.278;6.808;2023-08-06T02:35:16;6.05;;;4.50;;
68870;SDS011;55906;52.278;6.808;2023-08-06T02:37:42;5.45;;;3.90;;
68870;SDS011;55906;52.278;6.808;2023-08-06T02:40:09;6.93;;;4.72;;
68870;SDS011;55906;52.278;6.808;2023-08-06T02:42:36;5.87;;;4.33;;
68870;SDS011;55906;52.278;6.808;2023-08-06T02:45:05;5.80;;;4.30;;
68870;SDS011;55906;52.278;6.808;2023-08-06T02:47:32;6.88;;;4.57;;
68870;SDS011;55906;52.278;6.808;2023-08-06T02:49:59;6.55;;;4.53;;
68870;SDS011;55906;52.278;6.808;2023-08-06T02:52:25;5.53;;;4.10;;
68870;SDS011;55906;52.278;6.808;2023-08-06T02:54:52;5.63;;;3.73;;
68870;SDS011;55906;52.278;6.808;2023-08-06T02:57:18;6.60;;;4.57;;
68870;SDS011;55906;52.278;6.808;2023-08-06T02:59:45;6.13;;;4.35;;
68870;SDS011;55906;52.278;6.808;2023-08-06T03:02:13;7.97;;;4.32;;
68870;SDS011;55906;52.278;6.808;2023-08-06T03:04:40;8.73;;;5.47;;
68870;SDS011;55906;52.278;6.808;2023-08-06T03:07:06;5.93;;;4.10;;
68870;SDS011;55906;52.278;6.808;2023-08-06T03:09:33;7.97;;;5.22;;
68870;SDS011;55906;52.278;6.808;2023-08-06T03:11:59;10.93;;;5.00;;
68870;SDS011;55906;52.278;6.808;2023-08-06T03:14:26;6.80;;;4.20;;
68870;SDS011;55906;52.278;6.808;2023-08-06T03:16:53;6.78;;;5.05;;
68870;SDS011;55906;52.278;6.808;2023-08-06T03:19:21;7.87;;;5.57;;
68870;SDS011;55906;52.278;6.808;2023-08-06T03:21:47;10.50;;;5.47;;
68870;SDS011;55906;52.278;6.808;2023-08-06T03:24:14;7.70;;;5.38;;
68870;SDS011;55906;52.278;6.808;2023-08-06T03:26:40;7.22;;;5.15;;
68870;SDS011;55906;52.278;6.808;2023-08-06T03:29:07;6.75;;;5.28;;
68870;SDS011;55906;52.278;6.808;2023-08-06T03:31:34;7.53;;;5.07;;
68870;SDS011;55906;52.278;6.808;2023-08-06T03:34:00;6.70;;;5.00;;
68870;SDS011;55906;52.278;6.808;2023-08-06T03:36:28;6.97;;;5.43;;
68870;SDS011;55906;52.278;6.808;2023-08-06T03:38:55;7.32;;;5.05;;
68870;SDS011;55906;52.278;6.808;2023-08-06T03:41:21;9.05;;;6.55;;
68870;SDS011;55906;52.278;6.808;2023-08-06T03:43:48;7.00;;;5.13;;
68870;SDS011;55906;52.278;6.808;2023-08-06T03:46:14;7.15;;;4.85;;
68870;SDS011;55906;52.278;6.808;2023-08-06T03:48:41;6.50;;;5.07;;
68870;SDS011;55906;52.278;6.808;2023-08-06T03:51:07;8.80;;;5.88;;
68870;SDS011;55906;52.278;6.808;2023-08-06T03:53:35;9.68;;;6.15;;
68870;SDS011;55906;52.278;6.808;2023-08-06T03:56:02;7.77;;;5.37;;
68870;SDS011;55906;52.278;6.808;2023-08-06T03:58:29;7.93;;;5.72;;
68870;SDS011;55906;52.278;6.808;2023-08-06T04:00:59;8.43;;;6.88;;
68870;SDS011;55906;52.278;6.808;2023-08-06T04:03:26;7.47;;;5.22;;
68870;SDS011;55906;52.278;6.808;2023-08-06T04:05:53;7.88;;;5.35;;
68870;SDS011;55906;52.278;6.808;2023-08-06T04:08:20;7.33;;;5.97;;
68870;SDS011;55906;52.278;6.808;2023-08-06T04:10:50;6.22;;;4.63;;
68870;SDS011;55906;52.278;6.808;2023-08-06T04:13:17;7.07;;;4.72;;
68870;SDS011;55906;52.278;6.808;2023-08-06T04:15:44;7.63;;;5.90;;
68870;SDS011;55906;52.278;6.808;2023-08-06T04:18:10;6.60;;;5.00;;
68870;SDS011;55906;52.278;6.808;2023-08-06T04:20:42;6.20;;;4.30;;
68870;SDS011;55906;52.278;6.808;2023-08-06T04:23:08;8.35;;;5.72;;
68870;SDS011;55906;52.278;6.808;2023-08-06T04:25:35;7.30;;;5.78;;
68870;SDS011;55906;52.278;6.808;2023-08-06T04:28:03;8.77;;;6.13;;
68870;SDS011;55906;52.278;6.808;2023-08-06T04:30:30;11.05;;;6.65;;
68870;SDS011;55906;52.278;6.808;2023-08-06T04:32:56;7.93;;;6.03;;
68870;SDS011;55906;52.278;6.808;2023-08-06T04:35:23;7.00;;;5.32;;
68870;SDS011;55906;52.278;6.808;2023-08-06T04:37:50;10.50;;;7.82;;
68870;SDS011;55906;52.278;6.808;2023-08-06T04:40:17;7.05;;;5.28;;
68870;SDS011;55906;52.278;6.808;2023-08-06T04:42:43;8.88;;;7.00;;
68870;SDS011;55906;52.278;6.808;2023-08-06T04:45:11;7.07;;;5.20;;
68870;SDS011;55906;52.278;6.808;2023-08-06T04:47:38;6.80;;;4.65;;
68870;SDS011;55906;52.278;6.808;2023-08-06T04:50:05;7.38;;;5.32;;
68870;SDS011;55906;52.278;6.808;2023-08-06T04:52:32;6.13;;;4.93;;
68870;SDS011;55906;52.278;6.808;2023-08-06T04:54:59;8.75;;;4.78;;
68870;SDS011;55906;52.278;6.808;2023-08-06T04:57:25;7.43;;;4.37;;
68870;SDS011;55906;52.278;6.808;2023-08-06T04:59:52;6.00;;;4.25;;
68870;SDS011;55906;52.278;6.808;2023-08-06T05:02:20;6.20;;;4.65;;
68870;SDS011;55906;52.278;6.808;2023-08-06T05:04:46;6.82;;;5.32;;
68870;SDS011;55906;52.278;6.808;2023-08-06T05:07:13;7.22;;;5.65;;
68870;SDS011;55906;52.278;6.808;2023-08-06T05:09:39;6.47;;;4.63;;
68870;SDS011;55906;52.278;6.808;2023-08-06T05:12:06;6.93;;;5.38;;
68870;SDS011;55906;52.278;6.808;2023-08-06T05:14:33;6.28;;;4.78;;
68870;SDS011;55906;52.278;6.808;2023-08-06T05:17:00;6.20;;;4.30;;
68870;SDS011;55906;52.278;6.808;2023-08-06T05:19:30;6.72;;;5.47;;
68870;SDS011;55906;52.278;6.808;2023-08-06T05:21:57;8.33;;;6.53;;
68870;SDS011;55906;52.278;6.808;2023-08-06T05:24:24;6.95;;;4.90;;
68870;SDS011;55906;52.278;6.808;2023-08-06T05:26:50;7.07;;;5.18;;
68870;SDS011;55906;52.278;6.808;2023-08-06T05:29:17;6.60;;;5.00;;
68870;SDS011;55906;52.278;6.808;2023-08-06T05:31:43;6.95;;;4.97;;
68870;SDS011;55906;52.278;6.808;2023-08-06T05:34:10;6.33;;;4.63;;
68870;SDS011;55906;52.278;6.808;2023-08-06T05:36:38;8.38;;;5.00;;
68870;SDS011;55906;52.278;6.808;2023-08-06T05:39:04;6.50;;;5.10;;
68870;SDS011;55906;52.278;6.808;2023-08-06T05:41:31;6.40;;;4.97;;
68870;SDS011;55906;52.278;6.808;2023-08-06T05:43:58;8.23;;;6.05;;
68870;SDS011;55906;52.278;6.808;2023-08-06T05:46:24;9.00;;;6.73;;
68870;SDS011;55906;52.278;6.808;2023-08-06T05:48:51;6.60;;;5.03;;
68870;SDS011;55906;52.278;6.808;2023-08-06T05:51:17;6.75;;;4.88;;
68870;SDS011;55906;52.278;6.808;2023-08-06T05:53:45;7.53;;;4.82;;
68870;SDS011;55906;52.278;6.808;2023-08-06T05:56:14;6.40;;;5.00;;
68870;SDS011;55906;52.278;6.808;2023-08-06T05:58:41;6.23;;;4.83;;
68870;SDS011;55906;52.278;6.808;2023-08-06T06:01:07;10.57;;;6.30;;
68870;SDS011;55906;52.278;6.808;2023-08-06T06:03:34;6.95;;;5.15;;
68870;SDS011;55906;52.278;6.808;2023-08-06T06:06:00;5.38;;;3.83;;
68870;SDS011;55906;52.278;6.808;2023-08-06T06:08:27;5.82;;;4.45;;
68870;SDS011;55906;52.278;6.808;2023-08-06T06:10:55;7.23;;;4.40;;
68870;SDS011;55906;52.278;6.808;2023-08-06T06:13:22;7.43;;;5.43;;
68870;SDS011;55906;52.278;6.808;2023-08-06T06:15:49;5.97;;;4.32;;
68870;SDS011;55906;52.278;6.808;2023-08-06T06:18:16;5.72;;;4.30;;
68870;SDS011;55906;52.278;6.808;2023-08-06T06:20:42;5.35;;;3.65;;
68870;SDS011;55906;52.278;6.808;2023-08-06T06:23:09;5.40;;;4.20;;
68870;SDS011;55906;52.278;6.808;2023-08-06T06:25:35;5.32;;;3.80;;
68870;SDS011;55906;52.278;6.808;2023-08-06T06:28:03;5.40;;;4.20;;
68870;SDS011;55906;52.278;6.808;2023-08-06T06:30:30;7.32;;;4.50;;
68870;SDS011;55906;52.278;6.808;2023-08-06T06:32:57;9.75;;;6.55;;
68870;SDS011;55906;52.278;6.808;2023-08-06T06:35:23;7.60;;;4.40;;
68870;SDS011;55906;52.278;6.808;2023-08-06T06:37:50;6.80;;;4.70;;
68870;SDS011;55906;52.278;6.808;2023-08-06T06:40:16;6.60;;;5.13;;
68870;SDS011;55906;52.278;6.808;2023-08-06T06:42:43;6.28;;;4.45;;
68870;SDS011;55906;52.278;6.808;2023-08-06T06:45:11;6.15;;;4.75;;
68870;SDS011;55906;52.278;6.808;2023-08-06T06:47:38;7.10;;;4.60;;
68870;SDS011;55906;52.278;6.808;2023-08-06T06:50:05;5.63;;;3.92;;
68870;SDS011;55906;52.278;6.808;2023-08-06T06:52:32;5.82;;;4.20;;
68870;SDS011;55906;52.278;6.808;2023-08-06T06:54:59;5.88;;;4.25;;
68870;SDS011;55906;52.278;6.808;2023-08-06T06:57:25;5.40;;;4.07;;
68870;SDS011;55906;52.278;6.808;2023-08-06T06:59:52;7.43;;;4.87;;
68870;SDS011;55906;52.278;6.808;2023-08-06T07:02:20;6.13;;;4.45;;
68870;SDS011;55906;52.278;6.808;2023-08-06T07:04:46;6.00;;;3.92;;
68870;SDS011;55906;52.278;6.808;2023-08-06T07:07:13;6.10;;;4.05;;
68870;SDS011;55906;52.278;6.808;2023-08-06T07:09:40;5.47;;;3.72;;
68870;SDS011;55906;52.278;6.808;2023-08-06T07:12:07;4.63;;;3.47;;
68870;SDS011;55906;52.278;6.808;2023-08-06T07:14:33;6.70;;;4.18;;
68870;SDS011;55906;52.278;6.808;2023-08-06T07:17:00;4.50;;;3.10;;
68870;SDS011;55906;52.278;6.808;2023-08-06T07:19:28;7.30;;;4.25;;
68870;SDS011;55906;52.278;6.808;2023-08-06T07:21:55;6.68;;;4.63;;
68870;SDS011;55906;52.278;6.808;2023-08-06T07:24:21;5.23;;;3.83;;
68870;SDS011;55906;52.278;6.808;2023-08-06T07:26:48;7.95;;;4.20;;
68870;SDS011;55906;52.278;6.808;2023-08-06T07:29:15;5.22;;;3.55;;
68870;SDS011;55906;52.278;6.808;2023-08-06T07:31:44;5.93;;;3.83;;
68870;SDS011;55906;52.278;6.808;2023-08-06T07:34:11;5.03;;;3.38;;
68870;SDS011;55906;52.278;6.808;2023-08-06T07:36:39;6.43;;;4.20;;
68870;SDS011;55906;52.278;6.808;2023-08-06T07:39:06;7.20;;;4.60;;
68870;SDS011;55906;52.278;6.808;2023-08-06T07:41:32;6.25;;;4.13;;
68870;SDS011;55906;52.278;6.808;2023-08-06T07:43:59;6.95;;;4.13;;
68870;SDS011;55906;52.278;6.808;2023-08-06T07:46:25;6.82;;;5.05;;
68870;SDS011;55906;52.278;6.808;2023-08-06T07:48:52;7.63;;;5.60;;
68870;SDS011;55906;52.278;6.808;2023-08-06T07:51:19;6.13;;;4.72;;
68870;SDS011;55906;52.278;6.808;2023-08-06T07:53:47;6.78;;;4.85;;
68870;SDS011;55906;52.278;6.808;2023-08-06T07:56:14;6.43;;;5.07;;
68870;SDS011;55906;52.278;6.808;2023-08-06T07:58:40;7.70;;;4.85;;
68870;SDS011;55906;52.278;6.808;2023-08-06T08:01:07;6.73;;;4.47;;
68870;SDS011;55906;52.278;6.808;2023-08-06T08:03:34;9.05;;;5.20;;
68870;SDS011;55906;52.278;6.808;2023-08-06T08:06:01;8.15;;;5.28;;
68870;SDS011;55906;52.278;6.808;2023-08-06T08:08:28;8.20;;;5.75;;
68870;SDS011;55906;52.278;6.808;2023-08-06T08:10:56;9.90;;;5.68;;
68870;SDS011;55906;52.278;6.808;2023-08-06T08:13:24;8.37;;;5.30;;
68870;SDS011;55906;52.278;6.808;2023-08-06T08:15:55;8.50;;;5.07;;
68870;SDS011;55906;52.278;6.808;2023-08-06T08:18:23;6.85;;;5.22;;
68870;SDS011;55906;52.278;6.808;2023-08-06T08:20:49;6.88;;;5.15;;
68870;SDS011;55906;52.278;6.808;2023-08-06T08:23:16;6.82;;;5.00;;
68870;SDS011;55906;52.278;6.808;2023-08-06T08:25:44;8.43;;;5.20;;
68870;SDS011;55906;52.278;6.808;2023-08-06T08:28:12;7.53;;;5.93;;
68870;SDS011;55906;52.278;6.808;2023-08-06T08:30:40;6.68;;;4.57;;
68870;SDS011;55906;52.278;6.808;2023-08-06T08:33:07;10.68;;;6.72;;
68870;SDS011;55906;52.278;6.808;2023-08-06T08:35:34;8.70;;;4.93;;
68870;SDS011;55906;52.278;6.808;2023-08-06T08:38:00;8.03;;;5.50;;
68870;SDS011;55906;52.278;6.808;2023-08-06T08:40:28;7.25;;;4.57;;
68870;SDS011;55906;52.278;6.808;2023-08-06T08:42:58;6.18;;;3.97;;
68870;SDS011;55906;52.278;6.808;2023-08-06T08:45:28;7.13;;;4.72;;
68870;SDS011;55906;52.278;6.808;2023-08-06T08:47:56;6.25;;;5.10;;
68870;SDS011;55906;52.278;6.808;2023-08-06T08:50:22;7.20;;;4.30;;
68870;SDS011;55906;52.278;6.808;2023-08-06T08:52:49;5.65;;;3.83;;
68870;SDS011;55906;52.278;6.808;2023-08-06T08:55:17;6.78;;;4.65;;
68870;SDS011;55906;52.278;6.808;2023-08-06T08:57:46;9.13;;;4.78;;
68870;SDS011;55906;52.278;6.808;2023-08-06T09:00:13;8.48;;;5.70;;
68870;SDS011;55906;52.278;6.808;2023-08-06T09:02:41;6.27;;;3.80;;
68870;SDS011;55906;52.278;6.808;2023-08-06T09:05:09;5.68;;;4.15;;
68870;SDS011;55906;52.278;6.808;2023-08-06T09:07:38;5.72;;;4.55;;
68870;SDS011;55906;52.278;6.808;2023-08-06T09:10:10;7.22;;;5.15;;
68870;SDS011;55906;52.278;6.808;2023-08-06T09:12:38;4.78;;;3.53;;
68870;SDS011;55906;52.278;6.808;2023-08-06T09:15:05;6.23;;;3.93;;
68870;SDS011;55906;52.278;6.808;2023-08-06T09:17:33;6.10;;;4.55;;
68870;SDS011;55906;52.278;6.808;2023-08-06T09:20:09;4.90;;;3.60;;
68870;SDS011;55906;52.278;6.808;2023-08-06T09:22:37;5.53;;;3.50;;
68870;SDS011;55906;52.278;6.808;2023-08-06T09:25:03;5.10;;;3.38;;
68870;SDS011;55906;52.278;6.808;2023-08-06T09:27:34;5.50;;;3.70;;
68870;SDS011;55906;52.278;6.808;2023-08-06T09:30:01;4.40;;;3.00;;
68870;SDS011;55906;52.278;6.808;2023-08-06T09:32:29;5.10;;;3.58;;
68870;SDS011;55906;52.278;6.808;2023-08-06T09:35:16;5.35;;;3.20;;
68870;SDS011;55906;52.278;6.808;2023-08-06T09:37:43;4.57;;;3.42;;
68870;SDS011;55906;52.278;6.808;2023-08-06T09:40:23;5.77;;;3.20;;
68870;SDS011;55906;52.278;6.808;2023-08-06T09:42:51;5.05;;;2.97;;
68870;SDS011;55906;52.278;6.808;2023-08-06T09:45:18;7.15;;;3.58;;
68870;SDS011;55906;52.278;6.808;2023-08-06T09:47:46;4.97;;;3.08;;
68870;SDS011;55906;52.278;6.808;2023-08-06T09:50:16;5.03;;;3.65;;
68870;SDS011;55906;52.278;6.808;2023-08-06T09:52:43;4.57;;;2.87;;
68870;SDS011;55906;52.278;6.808;2023-08-06T09:55:10;3.97;;;2.40;;
68870;SDS011;55906;52.278;6.808;2023-08-06T09:57:38;4.72;;;2.60;;
68870;SDS011;55906;52.278;6.808;2023-08-06T10:00:06;4.80;;;2.70;;
68870;SDS011;55906;52.278;6.808;2023-08-06T10:02:35;4.78;;;2.88;;
68870;SDS011;55906;52.278;6.808;2023-08-06T10:05:02;5.30;;;3.03;;
68870;SDS011;55906;52.278;6.808;2023-08-06T10:07:31;4.70;;;2.83;;
68870;SDS011;55906;52.278;6.808;2023-08-06T10:09:58;5.90;;;2.80;;
68870;SDS011;55906;52.278;6.808;2023-08-06T10:12:24;4.40;;;2.53;;
68870;SDS011;55906;52.278;6.808;2023-08-06T10:14:54;4.97;;;2.80;;
68870;SDS011;55906;52.278;6.808;2023-08-06T10:17:22;4.43;;;2.30;;
68870;SDS011;55906;52.278;6.808;2023-08-06T10:19:50;4.22;;;2.30;;
68870;SDS011;55906;52.278;6.808;2023-08-06T10:22:20;4.03;;;2.30;;
68870;SDS011;55906;52.278;6.808;2023-08-06T10:25:00;4.03;;;2.42;;
68870;SDS011;55906;52.278;6.808;2023-08-06T10:27:30;4.90;;;2.40;;
68870;SDS011;55906;52.278;6.808;2023-08-06T10:30:20;3.50;;;2.13;;
68870;SDS011;55906;52.278;6.808;2023-08-06T10:32:48;3.85;;;2.40;;
68870;SDS011;55906;52.278;6.808;2023-08-06T10:35:28;5.78;;;2.70;;
68870;SDS011;55906;52.278;6.808;2023-08-06T10:37:57;4.35;;;2.33;;
68870;SDS011;55906;52.278;6.808;2023-08-06T10:40:26;6.05;;;2.70;;
68870;SDS011;55906;52.278;6.808;2023-08-06T10:42:54;5.03;;;2.40;;
68870;SDS011;55906;52.278;6.808;2023-08-06T10:45:21;4.80;;;2.30;;
68870;SDS011;55906;52.278;6.808;2023-08-06T10:47:53;4.53;;;2.10;;
68870;SDS011;55906;52.278;6.808;2023-08-06T10:50:20;4.38;;;2.03;;
68870;SDS011;55906;52.278;6.808;2023-08-06T10:52:47;4.13;;;2.10;;
68870;SDS011;55906;52.278;6.808;2023-08-06T10:55:14;3.53;;;1.83;;
68870;SDS011;55906;52.278;6.808;2023-08-06T10:57:49;3.75;;;1.60;;
68870;SDS011;55906;52.278;6.808;2023-08-06T11:00:16;3.80;;;2.00;;
68870;SDS011;55906;52.278;6.808;2023-08-06T11:02:43;4.20;;;1.55;;
68870;SDS011;55906;52.278;6.808;2023-08-06T11:05:10;4.68;;;2.40;;
68870;SDS011;55906;52.278;6.808;2023-08-06T11:07:37;4.23;;;1.90;;
68870;SDS011;55906;52.278;6.808;2023-08-06T11:10:05;4.00;;;1.77;;
68870;SDS011;55906;52.278;6.808;2023-08-06T11:12:33;4.43;;;2.10;;
68870;SDS011;55906;52.278;6.808;2023-08-06T11:15:01;3.75;;;1.80;;
68870;SDS011;55906;52.278;6.808;2023-08-06T11:17:29;3.35;;;1.90;;
68870;SDS011;55906;52.278;6.808;2023-08-06T11:19:58;4.40;;;1.80;;
68870;SDS011;55906;52.278;6.808;2023-08-06T11:22:26;3.53;;;1.83;;
68870;SDS011;55906;52.278;6.808;2023-08-06T11:24:53;4.43;;;1.90;;
68870;SDS011;55906;52.278;6.808;2023-08-06T11:27:20;4.22;;;2.00;;
68870;SDS011;55906;52.278;6.808;2023-08-06T11:29:47;3.70;;;2.10;;
68870;SDS011;55906;52.278;6.808;2023-08-06T11:32:15;3.97;;;2.00;;
68870;SDS011;55906;52.278;6.808;2023-08-06T11:34:41;5.15;;;2.08;;
68870;SDS011;55906;52.278;6.808;2023-08-06T11:37:09;4.82;;;2.40;;
68870;SDS011;55906;52.278;6.808;2023-08-06T11:39:36;5.70;;;1.90;;
68870;SDS011;55906;52.278;6.808;2023-08-06T11:42:04;4.30;;;1.80;;
68870;SDS011;55906;52.278;6.808;2023-08-06T11:44:32;5.23;;;1.93;;
68870;SDS011;55906;52.278;6.808;2023-08-06T11:47:01;7.40;;;2.33;;
68870;SDS011;55906;52.278;6.808;2023-08-06T11:49:43;7.03;;;2.75;;
68870;SDS011;55906;52.278;6.808;2023-08-06T11:52:15;4.65;;;2.08;;
68870;SDS011;55906;52.278;6.808;2023-08-06T11:54:44;5.05;;;2.50;;
68870;SDS011;55906;52.278;6.808;2023-08-06T11:57:12;4.00;;;2.13;;
68870;SDS011;55906;52.278;6.808;2023-08-06T11:59:38;3.95;;;1.95;;
68870;SDS011;55906;52.278;6.808;2023-08-06T12:02:07;4.90;;;2.35;;
68870;SDS011;55906;52.278;6.808;2023-08-06T12:07:29;4.75;;;2.90;;
68870;SDS011;55906;52.278;6.808;2023-08-06T12:09:56;4.50;;;3.10;;
68870;SDS011;55906;52.278;6.808;2023-08-06T12:12:23;5.50;;;3.20;;
68870;SDS011;55906;52.278;6.808;2023-08-06T12:14:50;6.57;;;3.60;;
68870;SDS011;55906;52.278;6.808;2023-08-06T12:17:17;5.00;;;3.95;;
68870;SDS011;55906;52.278;6.808;2023-08-06T12:19:44;6.10;;;4.43;;
68870;SDS011;55906;52.278;6.808;2023-08-06T12:22:13;6.38;;;5.20;;
68870;SDS011;55906;52.278;6.808;2023-08-06T12:24:40;5.72;;;4.63;;
68870;SDS011;55906;52.278;6.808;2023-08-06T12:27:07;5.00;;;4.03;;
68870;SDS011;55906;52.278;6.808;2023-08-06T12:29:34;5.20;;;4.45;;
68870;SDS011;55906;52.278;6.808;2023-08-06T12:32:01;5.47;;;4.28;;
68870;SDS011;55906;52.278;6.808;2023-08-06T12:34:27;6.57;;;5.18;;
68870;SDS011;55906;52.278;6.808;2023-08-06T12:36:54;5.85;;;4.20;;
68870;SDS011;55906;52.278;6.808;2023-08-06T12:39:22;5.27;;;4.10;;
68870;SDS011;55906;52.278;6.808;2023-08-06T12:41:48;5.40;;;4.45;;
68870;SDS011;55906;52.278;6.808;2023-08-06T12:44:15;5.57;;;4.45;;
68870;SDS011;55906;52.278;6.808;2023-08-06T12:46:42;7.05;;;5.82;;
68870;SDS011;55906;52.278;6.808;2023-08-06T12:49:08;7.70;;;5.05;;
68870;SDS011;55906;52.278;6.808;2023-08-06T12:51:35;6.77;;;4.70;;
68870;SDS011;55906;52.278;6.808;2023-08-06T12:54:02;6.68;;;5.28;;
68870;SDS011;55906;52.278;6.808;2023-08-06T12:56:30;5.78;;;4.43;;
68870;SDS011;55906;52.278;6.808;2023-08-06T12:58:56;5.82;;;3.78;;
68870;SDS011;55906;52.278;6.808;2023-08-06T13:01:23;7.13;;;4.40;;
68870;SDS011;55906;52.278;6.808;2023-08-06T13:03:50;5.73;;;4.10;;
68870;SDS011;55906;52.278;6.808;2023-08-06T13:06:16;4.60;;;3.45;;
68870;SDS011;55906;52.278;6.808;2023-08-06T13:08:43;5.45;;;3.83;;
68870;SDS011;55906;52.278;6.808;2023-08-06T13:11:10;4.10;;;2.75;;
68870;SDS011;55906;52.278;6.808;2023-08-06T13:13:38;7.05;;;4.07;;
68870;SDS011;55906;52.278;6.808;2023-08-06T13:16:04;4.03;;;2.60;;
68870;SDS011;55906;52.278;6.808;2023-08-06T13:18:31;6.65;;;3.65;;
68870;SDS011;55906;52.278;6.808;2023-08-06T13:20:58;6.95;;;3.17;;
68870;SDS011;55906;52.278;6.808;2023-08-06T13:23:24;5.78;;;3.55;;
68870;SDS011;55906;52.278;6.808;2023-08-06T13:25:51;4.80;;;3.00;;
68870;SDS011;55906;52.278;6.808;2023-08-06T13:28:17;4.60;;;3.00;;
68870;SDS011;55906;52.278;6.808;2023-08-06T13:30:45;4.65;;;3.20;;
68870;SDS011;55906;52.278;6.808;2023-08-06T13:33:12;4.43;;;3.05;;
68870;SDS011;55906;52.278;6.808;2023-08-06T13:35:39;5.07;;;3.20;;
68870;SDS011;55906;52.278;6.808;2023-08-06T13:38:06;4.43;;;2.88;;
68870;SDS011;55906;52.278;6.808;2023-08-06T13:40:33;7.57;;;4.10;;
68870;SDS011;55906;52.278;6.808;2023-08-06T13:43:00;6.80;;;4.03;;
68870;SDS011;55906;52.278;6.808;2023-08-06T13:45:26;5.90;;;3.30;;
68870;SDS011;55906;52.278;6.808;2023-08-06T13:47:55;5.53;;;3.47;;
68870;SDS011;55906;52.278;6.808;2023-08-06T13:50:21;6.93;;;3.75;;
68870;SDS011;55906;52.278;6.808;2023-08-06T13:52:50;6.97;;;3.30;;
68870;SDS011;55906;52.278;6.808;2023-08-06T13:55:18;8.43;;;3.70;;
68870;SDS011;55906;52.278;6.808;2023-08-06T13:57:45;6.22;;;3.67;;
68870;SDS011;55906;52.278;6.808;2023-08-06T14:00:11;5.63;;;3.30;;
68870;SDS011;55906;52.278;6.808;2023-08-06T14:02:39;5.65;;;3.30;;
68870;SDS011;55906;52.278;6.808;2023-08-06T14:05:07;5.57;;;3.13;;
68870;SDS011;55906;52.278;6.808;2023-08-06T14:07:34;4.60;;;2.72;;
68870;SDS011;55906;52.278;6.808;2023-08-06T14:10:00;4.85;;;2.92;;
68870;SDS011;55906;52.278;6.808;2023-08-06T14:12:27;5.72;;;3.25;;
68870;SDS011;55906;52.278;6.808;2023-08-06T14:14:54;5.78;;;3.53;;
68870;SDS011;55906;52.278;6.808;2023-08-06T14:17:20;6.73;;;2.93;;
68870;SDS011;55906;52.278;6.808;2023-08-06T14:19:47;4.80;;;2.83;;
68870;SDS011;55906;52.278;6.808;2023-08-06T14:22:15;4.60;;;2.78;;
68870;SDS011;55906;52.278;6.808;2023-08-06T14:24:41;5.72;;;2.70;;
68870;SDS011;55906;52.278;6.808;2023-08-06T14:27:08;18.63;;;2.90;;
68870;SDS011;55906;52.278;6.808;2023-08-06T14:29:35;5.50;;;3.23;;
68870;SDS011;55906;52.278;6.808;2023-08-06T14:32:01;5.68;;;3.47;;
68870;SDS011;55906;52.278;6.808;2023-08-06T14:34:28;11.20;;;4.35;;
68870;SDS011;55906;52.278;6.808;2023-08-06T14:40:18;5.95;;;4.00;;
68870;SDS011;55906;52.278;6.808;2023-08-06T14:42:46;5.93;;;3.00;;
68870;SDS011;55906;52.278;6.808;2023-08-06T14:45:12;4.32;;;2.92;;
68870;SDS011;55906;52.278;6.808;2023-08-06T14:47:39;4.40;;;2.90;;
68870;SDS011;55906;52.278;6.808;2023-08-06T14:50:06;4.93;;;2.63;;
68870;SDS011;55906;52.278;6.808;2023-08-06T14:52:32;4.60;;;2.60;;
68870;SDS011;55906;52.278;6.808;2023-08-06T14:54:59;5.63;;;3.33;;